Time;durP1;ratioP1;P1;durP2;ratioP2;P2;SDS_P1;SDS_P2;PMS_P1;PMS_P2;Temp;Humidity;BMP_temperature;BMP_pressure;BME280_temperature;BME280_humidity;BME280_pressure;Samples;Min_cycle;Max_cycle;Signal;HPM_P1;HPM_P2
2023/01/22 00:01:11;;;;;;;29.08;16.38;;;-1.20;83.60;;;;;;5079100;28;20060;-77
2023/01/22 00:03:38;;;;;;;29.85;17.20;;;-1.30;83.30;;;;;;5079114;28;20039;-75
2023/01/22 00:06:04;;;;;;;28.05;16.73;;;-1.50;84.10;;;;;;5078984;28;20377;-83
2023/01/22 00:08:31;;;;;;;26.95;15.70;;;-1.50;84.50;;;;;;5079302;28;20024;-80
2023/01/22 00:10:56;;;;;;;30.10;16.15;;;-1.50;84.80;;;;;;5083957;28;20020;-76
2023/01/22 00:13:23;;;;;;;28.15;16.40;;;-1.50;84.80;;;;;;5090563;28;20060;-74
2023/01/22 00:15:50;;;;;;;31.83;18.83;;;-1.50;84.90;;;;;;5098698;28;20047;-83
2023/01/22 00:18:16;;;;;;;28.77;17.58;;;-1.50;84.80;;;;;;5078991;28;20468;-76
2023/01/22 00:20:46;;;;;;;29.95;17.13;;;-1.50;85.00;;;;;;5078434;28;20020;-80
2023/01/22 00:23:12;;;;;;;28.15;16.15;;;-1.50;85.00;;;;;;5096415;28;20028;-74
2023/01/22 00:25:38;;;;;;;28.48;16.85;;;-1.50;85.00;;;;;;5096824;28;20107;-75
2023/01/22 00:28:03;;;;;;;33.25;18.35;;;-1.60;84.90;;;;;;5078504;28;20103;-81
2023/01/22 00:30:29;;;;;;;28.65;17.08;;;-1.60;85.30;;;;;;5096578;28;20528;-78
2023/01/22 00:32:55;;;;;;;31.67;18.08;;;-1.60;85.50;;;;;;5075606;28;20044;-75
2023/01/22 00:35:20;;;;;;;29.70;18.52;;;-1.60;85.70;;;;;;5058660;28;20024;-79
2023/01/22 00:37:47;;;;;;;34.17;19.13;;;-1.60;85.80;;;;;;5058346;28;20697;-76
2023/01/22 00:40:13;;;;;;;31.75;18.00;;;-1.60;85.80;;;;;;5058128;28;20583;-77
2023/01/22 00:42:39;;;;;;;34.25;18.38;;;-1.60;85.50;;;;;;5075857;28;20040;-74
2023/01/22 00:45:05;;;;;;;32.47;18.20;;;-1.60;85.60;;;;;;5075875;28;20094;-74
2023/01/22 00:47:30;;;;;;;29.65;16.83;;;-1.50;85.60;;;;;;5058099;28;20024;-74
2023/01/22 00:49:56;;;;;;;28.92;17.45;;;-1.60;85.40;;;;;;5058325;28;20074;-74
2023/01/22 00:52:22;;;;;;;30.70;17.33;;;-1.50;85.50;;;;;;5076015;28;20052;-74
2023/01/22 00:54:47;;;;;;;29.58;17.70;;;-1.40;85.50;;;;;;5057884;28;20016;-74
2023/01/22 00:57:13;;;;;;;27.48;16.60;;;-1.40;85.30;;;;;;5058623;28;20025;-80
2023/01/22 00:59:38;;;;;;;33.22;16.63;;;-1.30;85.30;;;;;;5058784;28;20481;-76
2023/01/22 01:02:05;;;;;;;28.42;16.35;;;-1.30;85.00;;;;;;5058601;28;20033;-75
2023/01/22 01:04:31;;;;;;;28.70;16.85;;;-1.20;84.80;;;;;;5057382;28;20027;-77
2023/01/22 01:06:56;;;;;;;31.50;16.45;;;-1.20;84.70;;;;;;5057785;28;20056;-80
2023/01/22 01:09:22;;;;;;;28.00;16.45;;;-1.10;84.50;;;;;;5057979;28;20028;-84
2023/01/22 01:11:48;;;;;;;27.77;16.42;;;-1.10;84.10;;;;;;5057811;28;20078;-82
2023/01/22 01:14:13;;;;;;;28.27;16.40;;;-1.10;84.10;;;;;;5058002;28;20137;-84
2023/01/22 01:16:41;;;;;;;29.15;16.67;;;-1.00;83.90;;;;;;5058715;28;20055;-84
2023/01/22 01:19:10;;;;;;;27.00;16.15;;;-1.00;83.80;;;;;;5057773;28;20070;-82
2023/01/22 01:21:37;;;;;;;28.63;15.90;;;-1.00;83.70;;;;;;5057574;28;20032;-85
2023/01/22 01:24:03;;;;;;;31.45;17.50;;;-1.00;83.50;;;;;;5077415;28;20054;-79
2023/01/22 01:26:29;;;;;;;33.25;17.70;;;-1.10;83.40;;;;;;5063926;28;20492;-83
2023/01/22 01:28:54;;;;;;;29.55;16.90;;;-1.10;83.50;;;;;;5063853;28;20016;-76
2023/01/22 01:31:23;;;;;;;32.35;18.45;;;-1.00;83.50;;;;;;5080394;28;20385;-74
2023/01/22 01:33:49;;;;;;;29.55;17.77;;;-1.00;83.50;;;;;;5067895;28;20389;-83
2023/01/22 01:36:20;;;;;;;26.27;16.00;;;-1.10;83.30;;;;;;5095505;28;20024;-76
2023/01/22 01:38:46;;;;;;;28.80;17.27;;;-1.00;83.20;;;;;;5077300;28;20020;-75
2023/01/22 01:41:15;;;;;;;30.00;16.17;;;-1.00;83.20;;;;;;5077056;28;20051;-74
2023/01/22 01:43:41;;;;;;;27.52;16.45;;;-1.00;83.20;;;;;;5077079;28;20532;-80
2023/01/22 01:46:16;;;;;;;28.77;17.02;;;-1.00;83.20;;;;;;5095120;28;20097;-74
2023/01/22 01:48:45;;;;;;;30.17;16.90;;;-0.90;83.10;;;;;;5078121;28;20097;-75
2023/01/22 01:51:19;;;;;;;30.25;16.02;;;-0.90;82.90;;;;;;5081474;28;20028;-76
2023/01/22 01:53:47;;;;;;;29.83;16.98;;;-0.90;82.90;;;;;;5078156;28;20046;-75
2023/01/22 01:56:18;;;;;;;26.92;15.43;;;-1.00;82.60;;;;;;5077095;28;20059;-79
2023/01/22 01:58:46;;;;;;;26.75;15.65;;;-1.00;82.90;;;;;;5094906;28;20376;-82
2023/01/22 02:01:15;;;;;;;28.67;16.33;;;-0.90;83.00;;;;;;5077539;28;20376;-85
2023/01/22 02:03:40;;;;;;;27.48;16.00;;;-1.00;82.90;;;;;;5095317;28;20020;-84
2023/01/22 02:06:15;;;;;;;23.77;14.70;;;-0.90;83.00;;;;;;5077242;28;20023;-83
2023/01/22 02:08:44;;;;;;;29.48;15.88;;;-0.90;82.80;;;;;;5077189;28;20059;-83
2023/01/22 02:11:10;;;;;;;25.80;14.93;;;-0.90;82.80;;;;;;5077092;28;20399;-79
2023/01/22 02:13:39;;;;;;;25.92;15.57;;;-0.90;82.70;;;;;;5093905;28;20031;-85
2023/01/22 02:16:06;;;;;;;24.98;15.48;;;-1.00;82.70;;;;;;5094346;28;20028;-85
2023/01/22 02:18:32;;;;;;;24.98;14.52;;;-1.00;82.80;;;;;;5076869;28;20016;-84
2023/01/22 02:21:00;;;;;;;24.80;14.85;;;-1.00;83.00;;;;;;5075786;28;20495;-84
2023/01/22 02:23:34;;;;;;;27.40;15.90;;;-1.00;83.10;;;;;;5075563;28;20024;-82
2023/01/22 02:26:00;;;;;;;28.58;15.32;;;-1.00;83.00;;;;;;5075508;28;20024;-85
2023/01/22 02:28:25;;;;;;;25.52;15.20;;;-1.00;83.80;;;;;;5075418;28;20034;-82
2023/01/22 02:30:51;;;;;;;23.85;14.55;;;-0.90;83.10;;;;;;5075929;28;20066;-82
2023/01/22 02:33:16;;;;;;;25.05;15.13;;;-0.90;83.00;;;;;;5076381;28;20042;-83
2023/01/22 02:35:42;;;;;;;25.48;15.85;;;-0.90;82.90;;;;;;5076414;28;20461;-84
2023/01/22 02:38:08;;;;;;;25.88;15.30;;;-0.90;82.90;;;;;;5094250;28;20042;-83
2023/01/22 02:40:34;;;;;;;26.00;15.20;;;-0.90;82.90;;;;;;5075708;28;20016;-82
2023/01/22 02:43:00;;;;;;;28.50;16.10;;;-0.90;82.90;;;;;;5094021;28;20028;-83
2023/01/22 02:45:25;;;;;;;27.50;15.60;;;-1.00;82.80;;;;;;5094436;28;20020;-82
2023/01/22 02:47:51;;;;;;;24.58;14.68;;;-1.00;83.10;;;;;;5094008;28;20020;-82
2023/01/22 02:50:17;;;;;;;24.67;14.43;;;-1.10;83.20;;;;;;5076128;28;20020;-83
2023/01/22 02:52:42;;;;;;;25.55;15.15;;;-1.10;83.30;;;;;;5094179;28;20385;-85
2023/01/22 02:55:08;;;;;;;22.63;14.18;;;-1.10;83.30;;;;;;5075622;28;20059;-84
2023/01/22 02:57:34;;;;;;;25.20;15.05;;;-1.00;83.40;;;;;;5075939;28;20024;-84
2023/01/22 03:00:00;;;;;;;26.52;15.90;;;-1.00;83.40;;;;;;5094343;28;20439;-85
2023/01/22 03:02:25;;;;;;;28.48;16.15;;;-1.00;83.40;;;;;;5076439;28;20495;-85
2023/01/22 03:05:02;;;;;;;27.15;16.73;;;-1.00;83.30;;;;;;5094395;28;20031;-84
2023/01/22 03:07:40;;;;;;;27.48;15.75;;;-1.10;83.50;;;;;;5079304;28;20020;-85
2023/01/22 03:10:11;;;;;;;29.55;17.63;;;-1.10;83.80;;;;;;5079608;28;20110;-86
2023/01/22 03:23:32;;;;;;;32.22;17.80;;;-1.30;85.00;;;;;;5093820;28;20035;-74
2023/01/22 03:25:58;;;;;;;29.70;16.90;;;-1.30;85.00;;;;;;5075634;28;20016;-76
2023/01/22 03:28:23;;;;;;;28.52;15.40;;;-1.20;85.10;;;;;;5075796;28;20380;-77
2023/01/22 03:30:49;;;;;;;30.40;16.75;;;-1.20;85.10;;;;;;5075043;28;20065;-75
2023/01/22 03:33:15;;;;;;;24.55;15.45;;;-1.20;85.20;;;;;;5074868;28;20072;-75
2023/01/22 03:35:40;;;;;;;29.33;16.77;;;-1.10;86.00;;;;;;5075532;28;20016;-76
2023/01/22 03:38:06;;;;;;;27.58;16.33;;;-1.10;85.00;;;;;;5093326;28;20070;-75
2023/01/22 03:40:31;;;;;;;29.13;16.80;;;-1.10;85.00;;;;;;5075338;28;20024;-79
2023/01/22 03:42:57;;;;;;;26.05;16.42;;;-1.00;84.90;;;;;;5075064;28;20076;-74
2023/01/22 03:45:22;;;;;;;26.92;16.27;;;-1.00;84.60;;;;;;5076658;28;20131;-77
2023/01/22 03:47:48;;;;;;;28.50;17.20;;;-1.10;84.50;;;;;;5082375;28;20024;-75
2023/01/22 03:50:13;;;;;;;29.20;18.13;;;-1.10;84.70;;;;;;5081581;28;20024;-75
2023/01/22 03:52:39;;;;;;;28.25;16.38;;;-1.10;85.10;;;;;;5075866;28;20081;-74
2023/01/22 03:55:05;;;;;;;31.10;17.00;;;-1.10;85.20;;;;;;5075376;28;20107;-76
2023/01/22 03:57:31;;;;;;;31.33;17.23;;;-1.10;85.20;;;;;;5074859;28;20345;-74
2023/01/22 04:00:00;;;;;;;28.42;16.45;;;-1.10;85.20;;;;;;5075436;28;20021;-75
2023/01/22 04:02:27;;;;;;;27.05;15.82;;;-1.10;85.30;;;;;;5075194;28;20032;-75
2023/01/22 04:04:52;;;;;;;27.67;16.88;;;-1.10;85.30;;;;;;5093113;28;20378;-76
2023/01/22 04:07:18;;;;;;;27.55;17.17;;;-1.10;85.30;;;;;;5092823;28;20031;-82
2023/01/22 04:09:44;;;;;;;27.90;16.48;;;-1.20;85.50;;;;;;5091883;28;20028;-75
2023/01/22 04:12:09;;;;;;;28.77;16.70;;;-1.10;85.60;;;;;;5075128;28;20487;-76
2023/01/22 04:14:35;;;;;;;29.83;17.25;;;-1.10;85.60;;;;;;5074813;28;20483;-75
2023/01/22 04:17:00;;;;;;;25.60;15.25;;;-1.20;85.70;;;;;;5074974;28;20027;-74
2023/01/22 04:19:26;;;;;;;29.15;16.58;;;-1.10;85.90;;;;;;5075120;28;20020;-77
2023/01/22 04:21:52;;;;;;;27.77;16.05;;;-1.10;85.90;;;;;;5075282;28;20032;-76
2023/01/22 04:24:17;;;;;;;28.45;16.67;;;-1.10;86.00;;;;;;5075164;28;20024;-84
2023/01/22 04:26:43;;;;;;;26.50;15.32;;;-1.00;85.80;;;;;;5075166;28;20476;-86
2023/01/22 04:29:08;;;;;;;26.73;16.45;;;-1.00;85.80;;;;;;5075094;28;20032;-76
2023/01/22 04:31:35;;;;;;;27.65;16.60;;;-0.90;85.80;;;;;;5075218;28;20016;-85
2023/01/22 04:34:01;;;;;;;28.27;17.15;;;-0.90;85.70;;;;;;5076117;28;20040;-86
2023/01/22 04:36:26;;;;;;;27.63;16.42;;;-1.00;85.50;;;;;;5076552;28;20362;-85
2023/01/22 04:38:52;;;;;;;26.58;16.60;;;-0.90;85.60;;;;;;5077062;28;20076;-74
2023/01/22 04:41:18;;;;;;;26.25;15.88;;;-0.90;85.60;;;;;;5078285;28;20115;-74
2023/01/22 04:43:43;;;;;;;29.25;16.48;;;-0.90;85.60;;;;;;5078117;28;20027;-75
2023/01/22 04:46:09;;;;;;;27.42;16.17;;;-0.90;85.50;;;;;;5078056;28;20384;-74
2023/01/22 04:48:34;;;;;;;33.13;17.88;;;-0.90;85.60;;;;;;5077982;28;20031;-78
2023/01/22 04:51:00;;;;;;;27.13;16.08;;;-1.00;85.70;;;;;;5096144;28;20073;-74
2023/01/22 04:53:26;;;;;;;29.70;17.17;;;-1.00;85.60;;;;;;5078325;28;20118;-74
2023/01/22 04:55:51;;;;;;;30.63;16.88;;;-1.00;85.90;;;;;;5078166;28;20023;-74
2023/01/22 04:58:17;;;;;;;33.50;18.90;;;-1.00;86.00;;;;;;5077870;28;20035;-74
2023/01/22 05:00:42;;;;;;;27.52;16.85;;;-1.00;86.20;;;;;;5077796;28;20126;-74
2023/01/22 05:03:09;;;;;;;31.65;16.70;;;-1.10;86.40;;;;;;5077609;28;20038;-73
2023/01/22 05:05:35;;;;;;;30.48;17.50;;;-1.10;86.50;;;;;;5077949;28;20016;-76
2023/01/22 05:08:01;;;;;;;31.45;17.58;;;-1.00;86.50;;;;;;5077725;28;20536;-74
2023/01/22 05:10:27;;;;;;;26.23;15.48;;;-1.00;86.50;;;;;;5095698;28;20042;-74
2023/01/22 05:12:52;;;;;;;26.63;15.45;;;-0.90;86.50;;;;;;5095623;28;20034;-74
2023/01/22 05:15:18;;;;;;;26.70;14.70;;;-0.90;86.40;;;;;;5095594;28;20480;-73
2023/01/22 05:17:43;;;;;;;24.52;14.52;;;-0.90;86.30;;;;;;5095918;28;20036;-74
2023/01/22 05:20:09;;;;;;;27.70;15.55;;;-0.90;86.20;;;;;;5102281;28;20479;-74
2023/01/22 05:22:35;;;;;;;30.52;17.05;;;-0.90;86.20;;;;;;5095942;28;20032;-75
2023/01/22 05:25:01;;;;;;;28.73;16.42;;;-0.90;86.30;;;;;;5094241;28;20031;-74
2023/01/22 05:27:26;;;;;;;28.00;15.95;;;-0.90;86.30;;;;;;5095421;28;20544;-74
2023/01/22 05:29:52;;;;;;;28.60;17.27;;;-0.90;86.20;;;;;;5095307;28;20529;-73
2023/01/22 05:32:17;;;;;;;27.20;16.02;;;-0.80;86.20;;;;;;5095251;28;20095;-74
2023/01/22 05:34:43;;;;;;;33.80;18.10;;;-0.80;86.20;;;;;;5076979;28;20185;-74
2023/01/22 05:37:09;;;;;;;35.38;18.40;;;-0.80;86.10;;;;;;5074966;28;20020;-74
2023/01/22 05:39:34;;;;;;;34.00;17.58;;;-0.90;86.10;;;;;;5056869;28;20034;-73
2023/01/22 05:42:00;;;;;;;34.85;18.42;;;-0.90;86.30;;;;;;5074851;28;20116;-74
2023/01/22 05:44:25;;;;;;;34.42;18.38;;;-0.90;86.40;;;;;;5074771;28;20366;-74
2023/01/22 05:46:51;;;;;;;33.63;19.02;;;-0.90;86.50;;;;;;5074661;28;20028;-72
2023/01/22 05:49:17;;;;;;;35.05;17.73;;;-0.80;86.50;;;;;;5073461;28;20100;-73
2023/01/22 05:51:42;;;;;;;30.90;16.95;;;-0.80;86.40;;;;;;5056661;28;20286;-75
2023/01/22 05:54:08;;;;;;;36.78;19.55;;;-0.90;86.40;;;;;;5074641;28;20020;-74
2023/01/22 05:56:34;;;;;;;34.55;18.25;;;-0.80;86.40;;;;;;5074594;28;20111;-75
2023/01/22 05:58:59;;;;;;;36.20;18.27;;;-0.80;86.40;;;;;;5074552;28;20025;-75
2023/01/22 06:01:25;;;;;;;37.53;19.13;;;-0.80;86.50;;;;;;5074489;28;20032;-79
2023/01/22 06:03:51;;;;;;;35.60;19.20;;;-0.80;86.60;;;;;;5074866;28;20028;-82
2023/01/22 06:06:16;;;;;;;35.10;18.63;;;-0.80;86.70;;;;;;5074540;28;20469;-77
2023/01/22 06:08:42;;;;;;;35.63;18.85;;;-0.80;86.70;;;;;;5074567;28;20024;-78
2023/01/22 06:11:12;;;;;;;40.20;20.73;;;-0.80;86.70;;;;;;5074524;28;20362;-79
2023/01/22 06:13:38;;;;;;;34.33;18.33;;;-0.80;86.80;;;;;;5074403;28;20082;-74
2023/01/22 06:16:05;;;;;;;37.92;19.65;;;-0.80;86.80;;;;;;5056481;28;20033;-75
2023/01/22 06:18:31;;;;;;;37.45;17.33;;;-0.80;86.70;;;;;;5056401;28;20056;-77
2023/01/22 06:21:04;;;;;;;37.05;19.33;;;-0.80;86.80;;;;;;5074252;28;20059;-80
2023/01/22 06:23:30;;;;;;;40.22;20.70;;;-0.80;86.70;;;;;;5056047;28;20112;-74
2023/01/22 06:25:57;;;;;;;40.88;20.58;;;-0.80;86.70;;;;;;5055480;28;20388;-75
2023/01/22 06:28:24;;;;;;;37.70;20.70;;;-0.90;86.80;;;;;;5056089;28;20033;-74
2023/01/22 06:30:50;;;;;;;36.08;19.13;;;-0.90;86.80;;;;;;5056012;28;20021;-74
2023/01/22 06:33:15;;;;;;;37.47;19.50;;;-0.90;86.90;;;;;;5049872;28;20490;-77
2023/01/22 06:35:41;;;;;;;39.67;20.17;;;-0.90;86.90;;;;;;4991841;28;20031;-74
2023/01/22 06:38:07;;;;;;;37.78;19.45;;;-0.80;86.90;;;;;;4974616;28;20027;-76
2023/01/22 06:40:33;;;;;;;39.55;19.67;;;-0.80;86.90;;;;;;4980896;28;20023;-76
2023/01/22 06:43:07;;;;;;;34.28;18.95;;;-0.90;87.00;;;;;;4980054;28;20042;-74
2023/01/22 06:45:33;;;;;;;43.30;20.98;;;-0.90;86.90;;;;;;4974413;28;20474;-74
2023/01/22 06:47:58;;;;;;;35.65;18.65;;;-0.80;87.00;;;;;;4974298;28;20037;-75
2023/01/22 06:50:24;;;;;;;45.33;20.90;;;-0.90;87.00;;;;;;4974525;28;20026;-80
2023/01/22 06:52:49;;;;;;;39.03;19.27;;;-0.90;87.00;;;;;;4974198;28;20025;-74
2023/01/22 06:55:15;;;;;;;43.70;21.35;;;-0.80;87.00;;;;;;4974339;28;20034;-73
2023/01/22 06:57:41;;;;;;;40.55;20.90;;;-0.80;87.00;;;;;;4974179;28;20027;-74
2023/01/22 07:00:07;;;;;;;41.90;21.42;;;-0.90;87.10;;;;;;4973763;28;20471;-75
2023/01/22 07:02:32;;;;;;;42.15;21.05;;;-0.80;87.20;;;;;;4990799;28;20376;-74
2023/01/22 07:04:58;;;;;;;43.72;21.10;;;-0.80;87.20;;;;;;4973752;28;20028;-81
2023/01/22 07:07:24;;;;;;;39.67;19.30;;;-0.80;87.20;;;;;;4991264;28;20034;-75
2023/01/22 07:09:49;;;;;;;37.47;19.05;;;-0.80;87.30;;;;;;4973991;28;20030;-75
2023/01/22 07:12:15;;;;;;;43.08;20.80;;;-0.80;87.30;;;;;;4973952;28;20038;-78
2023/01/22 07:14:41;;;;;;;43.53;20.58;;;-0.80;87.30;;;;;;4973375;28;20117;-74
2023/01/22 07:17:06;;;;;;;44.75;21.30;;;-0.80;87.20;;;;;;4973818;28;20077;-74
2023/01/22 07:19:32;;;;;;;48.83;22.52;;;-0.80;88.10;;;;;;4973554;28;20018;-76
2023/01/22 07:21:58;;;;;;;37.10;19.33;;;-0.80;87.30;;;;;;4973931;28;20027;-76
2023/01/22 07:24:23;;;;;;;45.60;21.90;;;-0.80;87.40;;;;;;4973646;28;20398;-73
2023/01/22 07:26:49;;;;;;;38.00;19.58;;;-0.80;87.50;;;;;;4973452;28;20075;-78
2023/01/22 07:29:14;;;;;;;43.30;20.60;;;-0.80;87.60;;;;;;4973396;28;20631;-78
2023/01/22 07:31:40;;;;;;;42.33;19.98;;;-0.70;87.70;;;;;;4991128;28;20121;-75
2023/01/22 07:34:06;;;;;;;37.70;20.25;;;-0.70;87.60;;;;;;4981629;28;20046;-74
2023/01/22 07:36:32;;;;;;;42.47;20.33;;;-0.70;87.30;;;;;;4997144;28;20022;-75
2023/01/22 07:38:57;;;;;;;45.22;22.73;;;-0.70;87.40;;;;;;4973469;28;20037;-75
2023/01/22 07:41:23;;;;;;;41.53;20.75;;;-0.60;87.30;;;;;;5037110;28;20093;-75
2023/01/22 07:43:48;;;;;;;45.97;21.70;;;-0.70;87.00;;;;;;5075326;28;20032;-75
2023/01/22 07:46:14;;;;;;;44.58;21.83;;;-0.70;87.00;;;;;;5075044;28;20020;-76
2023/01/22 07:48:40;;;;;;;46.13;22.52;;;-0.70;87.00;;;;;;5075583;28;20016;-83
2023/01/22 07:51:05;;;;;;;48.40;23.70;;;-0.70;87.00;;;;;;5093577;28;20031;-74
2023/01/22 07:53:32;;;;;;;50.67;24.60;;;-0.70;87.00;;;;;;5075214;28;20468;-75
2023/01/22 07:55:59;;;;;;;54.05;26.35;;;-0.70;87.00;;;;;;5076009;28;20111;-86
2023/01/22 07:58:25;;;;;;;56.92;25.90;;;-0.70;87.10;;;;;;5076985;28;20020;-85
2023/01/22 08:00:50;;;;;;;54.97;25.95;;;-0.70;87.20;;;;;;5093278;28;20511;-76
2023/01/22 08:03:16;;;;;;;49.33;23.90;;;-0.70;87.20;;;;;;5075096;28;20441;-80
2023/01/22 08:05:42;;;;;;;54.92;25.55;;;-0.60;87.20;;;;;;5093226;28;20028;-78
2023/01/22 08:08:19;;;;;;;53.03;24.45;;;-0.60;87.00;;;;;;5093258;28;20492;-79
2023/01/22 08:10:45;;;;;;;54.55;24.63;;;-0.70;87.10;;;;;;5075509;28;20028;-81
2023/01/22 08:13:11;;;;;;;50.58;24.30;;;-0.70;87.10;;;;;;5076547;28;20024;-80
2023/01/22 08:15:36;;;;;;;50.28;23.60;;;-0.70;87.10;;;;;;5079629;28;20115;-77
2023/01/22 08:18:02;;;;;;;57.70;24.98;;;-0.70;87.10;;;;;;5078877;28;20047;-74
2023/01/22 08:20:28;;;;;;;55.03;24.33;;;-0.70;87.20;;;;;;5078553;28;20027;-75
2023/01/22 08:22:58;;;;;;;54.42;25.48;;;-0.70;87.80;;;;;;5078180;28;20156;-73
2023/01/22 08:25:24;;;;;;;52.00;24.38;;;-0.60;87.80;;;;;;5096538;28;20020;-73
2023/01/22 08:27:49;;;;;;;52.08;24.58;;;-0.50;88.30;;;;;;5078169;28;20116;-75
2023/01/22 08:30:15;;;;;;;51.38;24.48;;;-0.40;88.20;;;;;;5078145;28;20480;-75
2023/01/22 08:32:43;;;;;;;66.00;25.67;;;-0.30;87.70;;;;;;5095050;28;20035;-78
2023/01/22 08:35:09;;;;;;;53.63;24.77;;;0.10;91.30;;;;;;5058133;28;20085;-76
2023/01/22 08:37:34;;;;;;;52.35;25.00;;;0.60;91.80;;;;;;5057661;28;20426;-77
2023/01/22 08:40:00;;;;;;;53.20;24.45;;;0.90;88.80;;;;;;5058337;28;20031;-78
2023/01/22 08:42:26;;;;;;;51.25;22.77;;;1.30;87.70;;;;;;5058033;28;20032;-77
2023/01/22 08:44:53;;;;;;;40.35;20.52;;;1.60;84.10;;;;;;5057922;28;20046;-77
2023/01/22 08:47:24;;;;;;;40.05;20.67;;;1.90;82.30;;;;;;5057474;28;20025;-78
2023/01/22 08:49:49;;;;;;;37.55;18.25;;;2.00;80.30;;;;;;5058263;28;20028;-78
2023/01/22 08:52:17;;;;;;;35.40;18.10;;;2.00;79.50;;;;;;5058109;28;20029;-78
2023/01/22 08:54:44;;;;;;;36.30;18.42;;;2.20;79.60;;;;;;5058304;28;20564;-79
2023/01/22 08:57:10;;;;;;;36.30;18.25;;;2.30;79.40;;;;;;5058529;28;20380;-86
2023/01/22 08:59:35;;;;;;;35.70;18.65;;;2.10;77.60;;;;;;5059313;28;20016;-86
2023/01/22 09:02:02;;;;;;;34.38;17.92;;;1.90;77.00;;;;;;5076974;28;20040;-84
2023/01/22 09:04:27;;;;;;;39.92;19.73;;;1.80;77.60;;;;;;5059507;28;20407;-88
2023/01/22 09:06:53;;;;;;;34.65;17.85;;;1.70;76.80;;;;;;5076536;28;20037;-81
2023/01/22 09:09:19;;;;;;;34.35;16.83;;;1.50;76.60;;;;;;5058979;28;20017;-81
2023/01/22 09:11:45;;;;;;;35.88;19.15;;;1.30;77.40;;;;;;5058956;28;20031;-84
2023/01/22 09:14:11;;;;;;;34.58;17.67;;;1.20;77.60;;;;;;5060122;28;20027;-87
2023/01/22 09:16:37;;;;;;;32.38;18.17;;;1.10;77.90;;;;;;5059243;28;20025;-89
2023/01/22 09:19:03;;;;;;;36.20;18.50;;;1.10;78.30;;;;;;5059361;28;20027;-85
2023/01/22 09:21:29;;;;;;;38.28;19.55;;;1.20;78.50;;;;;;5059094;28;20021;-87
2023/01/22 09:23:54;;;;;;;36.95;18.92;;;1.30;78.20;;;;;;5059118;28;20139;-88
2023/01/22 09:26:20;;;;;;;39.63;19.73;;;1.30;78.10;;;;;;5078663;28;20070;-88
2023/01/22 09:28:46;;;;;;;37.63;18.55;;;1.30;77.90;;;;;;5060018;28;20039;-85
2023/01/22 09:31:12;;;;;;;38.35;19.35;;;1.40;77.90;;;;;;5065144;28;20017;-84
2023/01/22 09:33:38;;;;;;;33.97;18.27;;;1.50;78.00;;;;;;5070089;28;20052;-74
2023/01/22 09:36:22;;;;;;;35.22;18.13;;;1.50;77.10;;;;;;5077102;28;20035;-73
2023/01/22 09:38:47;;;;;;;32.20;16.83;;;1.60;77.00;;;;;;5079185;28;20024;-74
2023/01/22 09:41:28;;;;;;;35.45;18.10;;;1.80;76.70;;;;;;5078057;28;20096;-73
2023/01/22 09:43:59;;;;;;;34.72;17.58;;;1.80;75.40;;;;;;5095627;28;20077;-73
2023/01/22 09:46:35;;;;;;;35.58;18.13;;;1.70;75.10;;;;;;5095229;28;20507;-73
2023/01/22 09:49:07;;;;;;;31.15;17.27;;;1.70;75.10;;;;;;5095425;28;20020;-88
2023/01/22 09:51:34;;;;;;;32.20;17.17;;;1.50;75.40;;;;;;5095694;28;20031;-73
2023/01/22 09:54:03;;;;;;;34.13;17.30;;;1.40;75.70;;;;;;5095534;28;20376;-73
2023/01/22 09:56:41;;;;;;;26.20;14.52;;;1.30;76.20;;;;;;5076719;28;20020;-72
2023/01/22 09:59:17;;;;;;;35.72;17.55;;;1.20;76.30;;;;;;5094925;28;20486;-83
2023/01/22 10:01:47;;;;;;;36.75;17.83;;;1.10;76.70;;;;;;5100573;28;20032;-75
2023/01/22 10:04:22;;;;;;;34.17;16.45;;;1.00;76.90;;;;;;5100205;28;20028;-74
2023/01/22 10:06:50;;;;;;;35.15;17.70;;;0.90;77.50;;;;;;5096930;28;20118;-72
2023/01/22 10:09:19;;;;;;;37.42;17.80;;;0.90;78.00;;;;;;5095861;28;20043;-73
2023/01/22 10:11:52;;;;;;;33.33;16.40;;;0.90;78.20;;;;;;5093792;28;20087;-74
2023/01/22 10:14:20;;;;;;;36.10;18.48;;;0.90;78.10;;;;;;5097670;28;20472;-73
2023/01/22 10:16:47;;;;;;;35.03;17.08;;;0.90;78.30;;;;;;5095529;28;20028;-90
2023/01/22 10:19:40;;;;;;;28.27;15.38;;;0.80;78.40;;;;;;5095486;28;20062;-76
2023/01/22 10:22:15;;;;;;;29.90;15.48;;;0.90;78.50;;;;;;5096281;28;20067;-78
2023/01/22 10:24:41;;;;;;;30.73;15.65;;;1.00;78.20;;;;;;5096504;28;20020;-75
2023/01/22 10:27:15;;;;;;;31.48;14.80;;;0.90;77.80;;;;;;5098966;28;20024;-82
2023/01/22 10:29:44;;;;;;;26.83;14.63;;;0.90;77.90;;;;;;5099814;28;20047;-75
2023/01/22 10:32:27;;;;;;;26.80;13.90;;;1.00;78.00;;;;;;5095070;28;20059;-74
2023/01/22 10:34:59;;;;;;;27.27;14.13;;;1.10;77.70;;;;;;5075649;28;20128;-74
2023/01/22 10:37:24;;;;;;;27.55;13.88;;;1.30;77.20;;;;;;5074769;28;20029;-76
2023/01/22 10:39:56;;;;;;;24.83;12.73;;;1.40;76.60;;;;;;5063969;28;20027;-75
2023/01/22 10:42:27;;;;;;;28.95;14.50;;;1.40;76.50;;;;;;5068931;28;20496;-74
2023/01/22 10:45:17;;;;;;;28.75;13.95;;;1.30;76.30;;;;;;5075732;28;20108;-75
2023/01/22 10:47:42;;;;;;;28.25;14.02;;;1.20;76.50;;;;;;5077959;28;20020;-76
2023/01/22 10:50:15;;;;;;;28.27;13.70;;;1.30;76.60;;;;;;5059245;28;20534;-78
2023/01/22 10:52:49;;;;;;;24.15;13.48;;;1.30;76.30;;;;;;5079941;28;20027;-77
2023/01/22 10:55:20;;;;;;;25.92;13.25;;;1.50;75.90;;;;;;5063341;28;20039;-73
2023/01/22 10:57:53;;;;;;;23.67;12.48;;;1.70;74.60;;;;;;5059270;28;20112;-77
2023/01/22 11:00:20;;;;;;;25.15;13.55;;;1.90;73.30;;;;;;5062356;28;20021;-74
2023/01/22 11:02:47;;;;;;;23.55;12.52;;;2.20;72.70;;;;;;5058547;28;20094;-74
2023/01/22 11:05:23;;;;;;;24.05;12.30;;;2.50;71.50;;;;;;5064943;28;20504;-73
2023/01/22 11:08:10;;;;;;;21.40;12.15;;;2.60;70.40;;;;;;5062114;28;20390;-76
2023/01/22 11:10:55;;;;;;;19.30;10.70;;;2.60;69.60;;;;;;5064653;28;20028;-75
2023/01/22 11:13:49;;;;;;;17.08;10.02;;;2.70;68.50;;;;;;5061489;28;20027;-75
2023/01/22 11:16:19;;;;;;;22.83;10.82;;;2.60;68.50;;;;;;5064280;28;20023;-84
2023/01/22 11:19:10;;;;;;;19.17;10.77;;;2.80;68.70;;;;;;5061180;28;20029;-90
2023/01/22 11:21:43;;;;;;;15.43;9.13;;;2.90;68.00;;;;;;5066772;28;20033;-79
2023/01/22 11:24:11;;;;;;;18.23;9.88;;;3.10;66.90;;;;;;5064441;28;20017;-90
2023/01/22 11:27:01;;;;;;;21.30;11.27;;;3.20;66.30;;;;;;5062556;28;20547;-86
2023/01/22 11:29:51;;;;;;;16.42;9.57;;;3.30;65.60;;;;;;5046679;28;20029;-83
2023/01/22 11:32:46;;;;;;;15.25;9.35;;;3.20;65.20;;;;;;5069334;28;20059;-78
2023/01/22 11:35:18;;;;;;;17.23;9.60;;;3.10;65.30;;;;;;5065816;28;20493;-76
2023/01/22 11:38:08;;;;;;;18.27;10.05;;;3.10;65.70;;;;;;5067437;28;20032;-74
2023/01/22 11:40:41;;;;;;;16.38;8.48;;;3.40;66.10;;;;;;5063349;28;20033;-73
2023/01/22 11:43:54;;;;;;;15.38;8.32;;;4.00;62.40;;;;;;5075620;28;20041;-77
2023/01/22 11:46:20;;;;;;;16.45;7.85;;;4.10;59.20;;;;;;5074780;28;20020;-74
2023/01/22 11:49:31;;;;;;;16.90;8.35;;;3.80;59.40;;;;;;5072142;28;20068;-75
2023/01/22 11:52:04;;;;;;;17.20;8.70;;;3.60;59.80;;;;;;5063617;28;20013;-74
2023/01/22 11:54:45;;;;;;;15.05;8.35;;;3.40;60.50;;;;;;5068171;28;20079;-83
2023/01/22 11:57:38;;;;;;;16.52;8.32;;;3.20;60.80;;;;;;5068358;28;20039;-74
2023/01/22 12:00:38;;;;;;;17.73;9.00;;;3.00;61.40;;;;;;5068334;28;20108;-85
2023/01/22 12:03:49;;;;;;;15.30;8.13;;;2.90;62.90;;;;;;5066658;28;20125;-87
2023/01/22 12:06:33;;;;;;;16.92;8.73;;;2.70;63.60;;;;;;5043318;28;20149;-76
2023/01/22 12:09:12;;;;;;;14.88;8.13;;;2.70;64.20;;;;;;5077950;28;20020;-75
2023/01/22 12:11:58;;;;;;;14.20;7.95;;;2.60;64.80;;;;;;5079165;28;20492;-76
2023/01/22 12:14:46;;;;;;;15.60;9.00;;;2.50;65.30;;;;;;5077647;28;20104;-75
2023/01/22 12:17:17;;;;;;;17.98;10.10;;;2.40;65.70;;;;;;5080049;28;20020;-74
2023/01/22 12:20:16;;;;;;;18.38;8.98;;;2.30;66.60;;;;;;5060175;28;20043;-75
2023/01/22 12:23:05;;;;;;;13.50;8.65;;;2.10;68.10;;;;;;5076335;28;20033;-76
2023/01/22 12:25:46;;;;;;;19.73;9.63;;;2.20;68.20;;;;;;5076167;28;20407;-74
2023/01/22 12:28:25;;;;;;;15.15;9.18;;;2.20;67.10;;;;;;5076166;28;20039;-73
2023/01/22 12:31:12;;;;;;;19.48;9.75;;;2.30;66.10;;;;;;5058048;28;20020;-75
2023/01/22 12:33:40;;;;;;;17.38;8.73;;;2.30;66.10;;;;;;5040435;28;20376;-76
2023/01/22 12:36:12;;;;;;;15.10;8.98;;;2.30;65.60;;;;;;4995336;28;20026;-73
2023/01/22 12:38:43;;;;;;;19.33;10.43;;;2.40;65.50;;;;;;4993980;28;20084;-78
2023/01/22 12:41:17;;;;;;;18.35;10.57;;;2.30;65.70;;;;;;4993347;28;20026;-74
2023/01/22 12:43:46;;;;;;;16.45;9.82;;;2.20;65.90;;;;;;4994814;28;20031;-75
2023/01/22 12:46:31;;;;;;;18.98;10.65;;;2.10;66.40;;;;;;4994181;28;20045;-78
2023/01/22 12:49:07;;;;;;;15.40;8.63;;;2.00;66.50;;;;;;4998402;28;20029;-76
2023/01/22 12:51:52;;;;;;;;;;;1.90;67.00;;;;;;5003497;28;20030;-74